createdAt,value
2022-10-07T00:00:58.726Z,50.85
2022-10-07T00:03:27.059Z,50.82
2022-10-07T00:06:00.152Z,51.00
2022-10-07T00:08:26.627Z,50.91
2022-10-07T00:10:53.112Z,50.65
2022-10-07T00:13:19.608Z,50.85
2022-10-07T00:15:46.144Z,51.17
2022-10-07T00:18:12.592Z,51.24
2022-10-07T00:20:39.814Z,51.20
2022-10-07T00:23:07.883Z,51.16
2022-10-07T00:25:37.873Z,51.42
2022-10-07T00:28:05.043Z,51.29
2022-10-07T00:30:31.692Z,51.58
2022-10-07T00:32:58.313Z,51.63
2022-10-07T00:35:25.867Z,51.46
2022-10-07T00:37:52.400Z,51.80
2022-10-07T00:40:18.892Z,51.74
2022-10-07T00:42:46.820Z,51.52
2022-10-07T00:45:16.723Z,51.52
2022-10-07T00:47:49.261Z,51.52
2022-10-07T00:50:23.699Z,51.49
2022-10-07T00:52:55.308Z,51.66
2022-10-07T00:55:26.208Z,51.68
2022-10-07T00:57:57.288Z,51.82
2022-10-07T01:00:24.117Z,52.08
2022-10-07T01:02:51.753Z,51.85
2022-10-07T01:05:19.234Z,52.08
2022-10-07T01:07:48.467Z,52.02
2022-10-07T01:10:19.914Z,51.90
2022-10-07T01:13:09.265Z,52.30
2022-10-07T01:15:44.495Z,52.10
2022-10-07T01:18:21.512Z,52.12
2022-10-07T01:20:57.855Z,51.93
2022-10-07T01:23:28.157Z,52.01
2022-10-07T01:26:14.145Z,52.06
2022-10-07T01:28:44.526Z,52.12
2022-10-07T01:31:16.872Z,52.37
2022-10-07T01:33:50.706Z,52.57
2022-10-07T01:36:21.616Z,52.37
2022-10-07T01:38:53.453Z,52.20
2022-10-07T01:41:24.459Z,52.23
2022-10-07T01:43:54.151Z,52.22
2022-10-07T01:46:26.441Z,52.37
2022-10-07T01:48:56.257Z,52.26
2022-10-07T01:51:27.131Z,52.30
2022-10-07T01:54:21.693Z,52.07
2022-10-07T01:57:07.695Z,52.54
2022-10-07T02:00:01.231Z,52.19
2022-10-07T02:03:17.790Z,52.61
2022-10-07T02:05:58.392Z,52.38
2022-10-07T02:08:24.956Z,52.53
2022-10-07T02:11:04.438Z,52.34
2022-10-07T02:13:38.644Z,52.86
2022-10-07T02:16:21.875Z,52.39
2022-10-07T02:18:53.542Z,52.85
2022-10-07T02:21:26.784Z,52.63
2022-10-07T02:23:59.679Z,52.75
2022-10-07T02:26:29.417Z,52.68
2022-10-07T02:29:01.623Z,53.11
2022-10-07T02:31:32.573Z,52.96
2022-10-07T02:34:08.010Z,53.27
2022-10-07T02:36:40.946Z,53.08
2022-10-07T02:39:07.995Z,53.31
2022-10-07T02:41:58.663Z,53.35
2022-10-07T02:44:56.052Z,53.48
2022-10-07T02:47:35.694Z,53.20
2022-10-07T02:50:07.404Z,53.19
2022-10-07T02:52:35.025Z,53.52
2022-10-07T02:55:09.497Z,53.44
2022-10-07T02:57:51.961Z,53.54
2022-10-07T03:00:19.757Z,53.46
2022-10-07T03:03:02.560Z,53.46
2022-10-07T03:05:54.504Z,53.51
2022-10-07T03:08:23.227Z,53.27
2022-10-07T03:10:50.809Z,53.58
2022-10-07T03:13:18.041Z,53.51
2022-10-07T03:15:52.038Z,53.57
2022-10-07T03:18:26.638Z,53.55
2022-10-07T03:21:00.886Z,53.66
2022-10-07T03:23:29.203Z,53.56
2022-10-07T03:26:00.945Z,53.76
2022-10-07T03:28:30.028Z,53.55
2022-10-07T03:31:07.615Z,53.64
2022-10-07T03:33:37.399Z,53.76
2022-10-07T03:36:05.987Z,53.67
2022-10-07T03:38:33.612Z,53.84
2022-10-07T03:41:01.926Z,53.75
2022-10-07T03:43:28.815Z,54.01
2022-10-07T03:45:56.895Z,53.83
2022-10-07T03:48:23.394Z,54.10
2022-10-07T03:50:57.201Z,53.89
2022-10-07T03:53:29.467Z,53.98
2022-10-07T03:55:57.746Z,54.01
2022-10-07T03:58:24.454Z,54.16
2022-10-07T04:00:51.667Z,54.02
2022-10-07T04:03:18.694Z,53.99
2022-10-07T04:05:59.638Z,54.26
2022-10-07T04:08:29.051Z,54.03
2022-10-07T04:10:59.649Z,53.97
2022-10-07T04:13:27.102Z,54.34
2022-10-07T04:15:54.682Z,54.01
2022-10-07T04:18:22.563Z,54.23
2022-10-07T04:20:51.390Z,54.08
2022-10-07T04:23:17.926Z,54.08
2022-10-07T04:25:46.767Z,53.94
2022-10-07T04:28:23.229Z,54.25
2022-10-07T04:30:55.148Z,54.38
2022-10-07T04:33:27.393Z,54.36
2022-10-07T04:35:55.857Z,54.30
2022-10-07T04:38:27.585Z,54.50
2022-10-07T04:40:55.736Z,54.50
2022-10-07T04:43:23.563Z,54.78
2022-10-07T04:46:09.169Z,54.77
2022-10-07T04:48:43.859Z,54.68
2022-10-07T04:51:10.639Z,54.55
2022-10-07T04:53:39.492Z,54.47
2022-10-07T04:56:12.074Z,54.78
2022-10-07T04:58:38.629Z,54.57
2022-10-07T05:01:09.349Z,54.72
2022-10-07T05:03:41.029Z,54.87
2022-10-07T05:06:23.993Z,54.79
2022-10-07T05:08:52.997Z,54.66
2022-10-07T05:11:20.591Z,54.99
2022-10-07T05:14:02.234Z,54.83
2022-10-07T05:16:31.294Z,55.04
2022-10-07T05:18:58.568Z,55.03
2022-10-07T05:21:25.097Z,55.04
2022-10-07T05:23:58.062Z,55.09
2022-10-07T05:26:29.974Z,54.99
2022-10-07T05:28:59.434Z,54.79
2022-10-07T05:31:33.357Z,54.87
2022-10-07T05:34:06.041Z,55.03
2022-10-07T05:36:32.958Z,55.17
2022-10-07T05:39:01.115Z,54.89
2022-10-07T05:41:45.394Z,54.88
2022-10-07T05:44:18.661Z,54.66
2022-10-07T05:46:46.918Z,54.85
2022-10-07T05:49:15.630Z,55.16
2022-10-07T05:51:42.263Z,55.24
2022-10-07T05:54:13.742Z,54.98
2022-10-07T05:56:42.838Z,54.95
2022-10-07T05:59:10.401Z,55.16
2022-10-07T06:01:38.783Z,55.17
2022-10-07T06:04:14.287Z,55.38
2022-10-07T06:06:44.043Z,55.17
2022-10-07T06:09:30.688Z,55.09
2022-10-07T06:12:18.194Z,55.13
2022-10-07T06:14:50.508Z,55.16
2022-10-07T06:17:17.067Z,55.17
2022-10-07T06:19:45.462Z,55.43
2022-10-07T06:22:11.978Z,55.51
2022-10-07T06:24:43.812Z,55.62
2022-10-07T06:27:10.855Z,55.41
2022-10-07T06:29:38.742Z,55.53
2022-10-07T06:32:05.877Z,55.59
2022-10-07T06:34:33.125Z,55.72
2022-10-07T06:36:59.924Z,55.61
2022-10-07T06:39:26.978Z,55.87
2022-10-07T06:41:54.584Z,55.96
2022-10-07T06:44:34.937Z,56.01
2022-10-07T06:47:01.625Z,55.81
2022-10-07T06:49:28.199Z,56.17
2022-10-07T06:51:54.682Z,56.38
2022-10-07T06:54:25.542Z,56.07
2022-10-07T06:56:52.238Z,56.01
2022-10-07T06:59:18.715Z,55.90
2022-10-07T07:01:52.939Z,56.48
2022-10-07T07:04:27.363Z,56.30
2022-10-07T07:06:54.619Z,56.60
2022-10-07T07:09:22.767Z,56.40
2022-10-07T07:11:54.251Z,56.63
2022-10-07T07:14:35.643Z,56.56
2022-10-07T07:17:14.635Z,56.50
2022-10-07T07:19:43.844Z,56.42
2022-10-07T07:22:11.933Z,56.39
2022-10-07T07:24:40.275Z,55.83
2022-10-07T07:27:07.926Z,55.92
2022-10-07T07:29:35.318Z,55.75
2022-10-07T07:32:04.289Z,55.30
2022-10-07T07:34:37.994Z,55.14
2022-10-07T07:37:05.963Z,55.02
2022-10-07T07:39:37.543Z,54.95
2022-10-07T07:42:10.086Z,55.00
2022-10-07T07:44:38.890Z,54.74
2022-10-07T07:47:09.253Z,54.80
2022-10-07T07:49:36.544Z,54.47
2022-10-07T07:52:04.300Z,54.56
2022-10-07T07:54:41.825Z,54.59
2022-10-07T07:57:08.694Z,54.14
2022-10-07T07:59:37.315Z,54.39
2022-10-07T08:02:05.703Z,54.16
2022-10-07T08:04:36.231Z,53.20
2022-10-07T08:07:03.451Z,53.34
2022-10-07T08:09:30.087Z,53.49
2022-10-07T08:11:57.622Z,53.21
2022-10-07T08:14:24.291Z,53.36
2022-10-07T08:16:55.518Z,53.00
2022-10-07T08:19:22.008Z,52.61
2022-10-07T08:21:48.853Z,52.42
2022-10-07T08:24:25.706Z,52.29
2022-10-07T08:26:53.615Z,52.36
2022-10-07T08:29:21.157Z,52.18
2022-10-07T08:31:49.211Z,52.06
2022-10-07T08:34:17.156Z,51.69
2022-10-07T08:36:47.648Z,51.63
2022-10-07T08:39:15.041Z,51.39
2022-10-07T08:42:05.519Z,51.33
2022-10-07T08:44:41.518Z,50.83
2022-10-07T08:47:34.578Z,51.15
2022-10-07T08:50:19.693Z,50.76
2022-10-07T08:53:11.607Z,50.81
2022-10-07T08:55:45.865Z,50.51
2022-10-07T08:58:30.936Z,50.11
2022-10-07T09:01:12.726Z,50.43
2022-10-07T09:04:15.222Z,50.30
2022-10-07T09:06:55.847Z,50.23
2022-10-07T09:09:28.253Z,49.81
2022-10-07T09:11:56.218Z,49.94
2022-10-07T09:14:38.150Z,49.54
2022-10-07T09:17:15.494Z,49.38
2022-10-07T09:19:46.760Z,49.00
2022-10-07T09:22:21.718Z,49.25
2022-10-07T09:25:09.023Z,49.01
2022-10-07T09:27:37.766Z,48.68
2022-10-07T09:30:06.401Z,48.67
2022-10-07T09:32:35.478Z,48.28
2022-10-07T09:35:06.901Z,48.31
2022-10-07T09:37:34.201Z,48.09
2022-10-07T09:40:23.236Z,47.95
2022-10-07T09:42:50.594Z,48.13
2022-10-07T09:45:23.863Z,48.06
2022-10-07T09:47:55.881Z,47.71
2022-10-07T09:50:38.988Z,47.61
2022-10-07T09:53:18.279Z,47.36
2022-10-07T09:55:45.333Z,47.22
2022-10-07T09:58:29.235Z,46.70
2022-10-07T10:00:57.919Z,46.48
2022-10-07T10:03:35.716Z,46.70
2022-10-07T10:06:09.642Z,46.56
2022-10-07T10:08:43.099Z,46.45
2022-10-07T10:11:25.691Z,46.11
2022-10-07T10:13:56.368Z,46.12
2022-10-07T10:16:26.065Z,45.93
2022-10-07T10:19:02.361Z,45.90
2022-10-07T10:21:32.541Z,46.01
2022-10-07T10:24:10.387Z,45.43
2022-10-07T10:26:48.738Z,45.08
2022-10-07T10:29:40.074Z,45.04
2022-10-07T10:32:37.246Z,45.12
2022-10-07T10:35:36.815Z,44.81
2022-10-07T10:38:26.211Z,44.43
2022-10-07T10:41:11.505Z,44.16
2022-10-07T10:44:01.551Z,43.95
2022-10-07T10:46:39.357Z,43.56
2022-10-07T10:49:36.478Z,43.49
2022-10-07T10:52:25.843Z,43.15
2022-10-07T10:55:08.259Z,43.18
2022-10-07T10:58:16.393Z,42.65
2022-10-07T11:01:00.141Z,42.46
2022-10-07T11:03:55.061Z,42.34
2022-10-07T11:06:22.418Z,42.33
2022-10-07T11:08:52.663Z,42.21
2022-10-07T11:11:21.784Z,41.82
2022-10-07T11:14:12.147Z,41.90
2022-10-07T11:16:44.781Z,41.56
2022-10-07T11:19:23.816Z,41.41
2022-10-07T11:21:52.723Z,41.35
2022-10-07T11:24:44.111Z,41.05
2022-10-07T11:27:25.991Z,41.06
2022-10-07T11:30:10.082Z,40.96
2022-10-07T11:33:08.216Z,40.79
2022-10-07T11:35:43.881Z,40.80
2022-10-07T11:38:10.295Z,40.69
2022-10-07T11:40:45.541Z,40.39
2022-10-07T11:43:47.625Z,40.14
2022-10-07T11:46:33.671Z,40.00
2022-10-07T11:49:14.827Z,40.00
2022-10-07T11:52:02.838Z,39.76
2022-10-07T11:54:42.328Z,39.60
2022-10-07T11:57:20.810Z,39.39
2022-10-07T11:59:58.032Z,39.12
2022-10-07T12:02:30.736Z,38.82
2022-10-07T12:05:01.339Z,38.20
2022-10-07T12:07:40.583Z,38.09
2022-10-07T12:10:20.105Z,37.96
2022-10-07T12:12:49.105Z,37.74
2022-10-07T12:15:40.479Z,37.76
2022-10-07T12:18:10.384Z,37.67
2022-10-07T12:20:50.169Z,37.44
2022-10-07T12:23:19.734Z,37.70
2022-10-07T12:25:48.225Z,37.64
2022-10-07T12:28:36.681Z,37.16
2022-10-07T12:31:16.288Z,37.38
2022-10-07T12:34:04.215Z,37.17
2022-10-07T12:36:31.511Z,37.33
2022-10-07T12:39:01.899Z,37.29
2022-10-07T12:41:34.442Z,37.28
2022-10-07T12:44:20.080Z,37.18
2022-10-07T12:46:51.174Z,37.07
2022-10-07T12:49:17.628Z,36.88
2022-10-07T12:51:45.156Z,37.27
2022-10-07T12:54:20.439Z,37.01
2022-10-07T12:56:48.246Z,37.03
2022-10-07T12:59:33.360Z,36.72
2022-10-07T13:02:31.450Z,36.43
2022-10-07T13:05:27.381Z,36.41
2022-10-07T13:08:36.094Z,36.28
2022-10-07T13:11:44.306Z,36.27
2022-10-07T13:14:23.907Z,36.47
2022-10-07T13:17:25.193Z,36.42
2022-10-07T13:20:06.629Z,36.40
2022-10-07T13:22:33.455Z,36.07
2022-10-07T13:25:07.568Z,36.09
2022-10-07T13:27:35.234Z,36.07
2022-10-07T13:30:05.974Z,36.25
2022-10-07T13:32:34.499Z,36.09
2022-10-07T13:35:30.226Z,35.71
2022-10-07T13:37:56.900Z,35.83
2022-10-07T13:40:35.434Z,35.34
2022-10-07T13:43:06.892Z,35.69
2022-10-07T13:45:43.544Z,35.61
2022-10-07T13:48:25.939Z,35.48
2022-10-07T13:50:56.914Z,35.48
2022-10-07T13:53:28.412Z,35.36
2022-10-07T13:56:20.561Z,35.17
2022-10-07T13:58:47.652Z,35.35
2022-10-07T14:01:15.627Z,35.37
2022-10-07T14:04:16.806Z,35.26
2022-10-07T14:06:43.671Z,35.45
2022-10-07T14:09:21.488Z,35.36
2022-10-07T14:11:54.008Z,35.39
2022-10-07T14:14:33.486Z,35.48
2022-10-07T14:17:00.498Z,35.68
2022-10-07T14:19:32.702Z,35.24
2022-10-07T14:22:04.405Z,35.02
2022-10-07T14:24:32.836Z,35.21
2022-10-07T14:27:00.592Z,34.97
2022-10-07T14:29:30.933Z,35.26
2022-10-07T14:32:39.774Z,35.27
2022-10-07T14:35:19.717Z,35.28
2022-10-07T14:37:47.362Z,35.34
2022-10-07T14:40:23.245Z,35.43
2022-10-07T14:42:53.769Z,35.36
2022-10-07T14:45:22.426Z,35.20
2022-10-07T14:47:49.687Z,35.31
2022-10-07T14:50:19.444Z,35.26
2022-10-07T14:52:51.859Z,35.56
2022-10-07T14:55:23.186Z,35.58
2022-10-07T14:57:50.037Z,35.46
2022-10-07T15:00:20.107Z,35.68
2022-10-07T15:02:48.023Z,35.86
2022-10-07T15:05:16.745Z,35.94
2022-10-07T15:07:43.821Z,35.99
2022-10-07T15:10:23.119Z,35.76
2022-10-07T15:12:50.099Z,36.03
2022-10-07T15:15:18.621Z,36.14
2022-10-07T15:17:45.550Z,36.40
2022-10-07T15:20:15.040Z,36.40
2022-10-07T15:22:42.519Z,36.44
2022-10-07T15:25:15.214Z,36.38
2022-10-07T15:27:42.282Z,36.87
2022-10-07T15:30:09.628Z,37.03
2022-10-07T15:32:36.196Z,36.87
2022-10-07T15:35:03.855Z,36.99
2022-10-07T15:37:32.252Z,37.04
2022-10-07T15:39:58.872Z,37.02
2022-10-07T15:42:26.122Z,37.44
2022-10-07T15:44:55.767Z,37.52
2022-10-07T15:47:22.290Z,37.62
2022-10-07T15:49:49.491Z,37.72
2022-10-07T15:52:16.538Z,38.06
2022-10-07T15:54:46.432Z,38.04
2022-10-07T15:57:14.175Z,38.06
2022-10-07T15:59:40.878Z,37.73
2022-10-07T16:02:14.828Z,38.25
2022-10-07T16:04:42.853Z,38.21
2022-10-07T16:07:11.993Z,38.39
2022-10-07T16:09:38.942Z,38.58
2022-10-07T16:12:06.333Z,38.71
2022-10-07T16:14:37.073Z,38.75
2022-10-07T16:17:04.141Z,38.58
2022-10-07T16:19:30.634Z,38.61
2022-10-07T16:21:57.154Z,38.92
2022-10-07T16:24:24.806Z,39.19
2022-10-07T16:26:51.380Z,39.50
2022-10-07T16:29:40.670Z,39.65
2022-10-07T16:32:10.513Z,39.51
2022-10-07T16:34:43.403Z,39.98
2022-10-07T16:37:11.131Z,39.80
2022-10-07T16:39:37.830Z,40.04
2022-10-07T16:42:04.391Z,40.16
2022-10-07T16:44:32.876Z,40.19
2022-10-07T16:47:00.219Z,40.57
2022-10-07T16:49:29.240Z,40.46
2022-10-07T16:51:56.656Z,40.66
2022-10-07T16:54:29.997Z,40.82
2022-10-07T16:56:58.562Z,41.11
2022-10-07T16:59:25.853Z,41.12
2022-10-07T17:01:55.571Z,41.20
2022-10-07T17:04:26.602Z,41.35
2022-10-07T17:06:53.660Z,41.20
2022-10-07T17:09:21.777Z,41.78
2022-10-07T17:11:48.267Z,41.83
2022-10-07T17:14:20.805Z,41.92
2022-10-07T17:16:49.789Z,41.82
2022-10-07T17:19:18.519Z,42.11
2022-10-07T17:21:48.077Z,41.88
2022-10-07T17:24:20.450Z,42.31
2022-10-07T17:26:47.656Z,42.17
2022-10-07T17:29:18.284Z,42.26
2022-10-07T17:31:48.242Z,42.57
2022-10-07T17:34:20.818Z,42.59
2022-10-07T17:36:48.248Z,42.49
2022-10-07T17:39:15.213Z,42.94
2022-10-07T17:41:41.748Z,42.67
2022-10-07T17:44:12.631Z,42.98
2022-10-07T17:46:40.348Z,43.11
2022-10-07T17:49:09.582Z,43.37
2022-10-07T17:51:37.399Z,43.36
2022-10-07T17:54:07.103Z,43.23
2022-10-07T17:56:34.513Z,43.34
2022-10-07T17:59:02.132Z,43.54
2022-10-07T18:01:31.778Z,43.45
2022-10-07T18:04:02.359Z,43.42
2022-10-07T18:06:31.430Z,43.98
2022-10-07T18:09:03.311Z,43.80
2022-10-07T18:11:48.886Z,43.94
2022-10-07T18:14:34.598Z,43.89
2022-10-07T18:17:01.162Z,44.10
2022-10-07T18:19:29.359Z,44.16
2022-10-07T18:21:56.428Z,44.28
2022-10-07T18:24:28.702Z,44.12
2022-10-07T18:26:58.880Z,44.42
2022-10-07T18:29:26.735Z,44.30
2022-10-07T18:31:53.357Z,44.73
2022-10-07T18:34:23.208Z,44.64
2022-10-07T18:36:53.789Z,45.00
2022-10-07T18:39:22.615Z,44.67
2022-10-07T18:41:49.149Z,44.88
2022-10-07T18:44:18.912Z,45.21
2022-10-07T18:46:45.543Z,44.83
2022-10-07T18:49:14.890Z,44.83
2022-10-07T18:51:41.565Z,45.10
2022-10-07T18:54:10.474Z,45.12
2022-10-07T18:56:40.897Z,45.43
2022-10-07T18:59:08.155Z,45.26
2022-10-07T19:01:34.935Z,45.49
2022-10-07T19:04:10.941Z,45.53
2022-10-07T19:06:40.169Z,45.35
2022-10-07T19:09:08.937Z,45.96
2022-10-07T19:11:35.850Z,45.87
2022-10-07T19:14:06.658Z,45.68
2022-10-07T19:16:36.638Z,45.81
2022-10-07T19:19:09.782Z,46.22
2022-10-07T19:21:36.365Z,45.84
2022-10-07T19:24:04.904Z,46.40
2022-10-07T19:26:38.532Z,46.04
2022-10-07T19:29:06.412Z,45.96
2022-10-07T19:31:35.989Z,46.50
2022-10-07T19:34:27.183Z,46.35
2022-10-07T19:36:55.029Z,46.22
2022-10-07T19:39:23.569Z,46.79
2022-10-07T19:41:51.039Z,46.63
2022-10-07T19:44:19.675Z,47.00
2022-10-07T19:46:50.143Z,46.65
2022-10-07T19:49:16.711Z,47.00
2022-10-07T19:51:45.461Z,46.94
2022-10-07T19:54:13.356Z,46.71
2022-10-07T19:56:40.601Z,47.14
2022-10-07T19:59:12.242Z,46.87
2022-10-07T20:01:43.968Z,47.39
2022-10-07T20:04:18.524Z,46.99
2022-10-07T20:06:45.427Z,47.08
2022-10-07T20:09:15.431Z,47.14
2022-10-07T20:11:42.343Z,47.14
2022-10-07T20:14:13.506Z,47.04
2022-10-07T20:16:40.163Z,47.09
2022-10-07T20:19:10.992Z,47.47
2022-10-07T20:21:38.152Z,47.60
2022-10-07T20:24:08.487Z,47.02
2022-10-07T20:26:37.706Z,47.29
2022-10-07T20:29:06.146Z,47.32
2022-10-07T20:31:35.600Z,47.32
2022-10-07T20:34:03.423Z,47.04
2022-10-07T20:36:36.269Z,47.54
2022-10-07T20:39:24.939Z,47.19
2022-10-07T20:42:11.830Z,47.55
2022-10-07T20:44:39.035Z,47.62
2022-10-07T20:47:07.637Z,47.29
2022-10-07T20:49:35.163Z,47.52
2022-10-07T20:52:07.000Z,47.37
2022-10-07T20:54:36.695Z,47.59
2022-10-07T20:57:03.989Z,47.57
2022-10-07T20:59:31.206Z,47.49
2022-10-07T21:01:58.738Z,47.37
2022-10-07T21:04:29.716Z,47.38
2022-10-07T21:06:56.815Z,47.71
2022-10-07T21:09:24.145Z,47.61
2022-10-07T21:11:51.498Z,47.49
2022-10-07T21:14:23.318Z,47.75
2022-10-07T21:16:50.000Z,47.74
2022-10-07T21:19:17.085Z,47.68
2022-10-07T21:21:44.177Z,47.66
2022-10-07T21:24:12.594Z,47.73
2022-10-07T21:26:39.098Z,47.98
2022-10-07T21:29:08.116Z,47.85
2022-10-07T21:31:35.675Z,47.94
2022-10-07T21:34:07.905Z,47.84
2022-10-07T21:36:37.037Z,48.06
2022-10-07T21:39:04.246Z,48.21
2022-10-07T21:41:34.306Z,48.29
2022-10-07T21:44:11.563Z,48.20
2022-10-07T21:46:39.970Z,47.97
2022-10-07T21:49:07.705Z,47.95
2022-10-07T21:51:34.673Z,48.37
2022-10-07T21:54:06.088Z,48.33
2022-10-07T21:56:34.039Z,48.51
2022-10-07T21:59:01.474Z,48.39
2022-10-07T22:01:28.830Z,48.47
2022-10-07T22:04:01.871Z,48.41
2022-10-07T22:06:50.601Z,48.28
2022-10-07T22:09:20.266Z,48.57
2022-10-07T22:11:47.013Z,48.63
2022-10-07T22:14:15.722Z,48.74
2022-10-07T22:16:42.333Z,48.57
2022-10-07T22:19:10.713Z,48.75
2022-10-07T22:21:40.155Z,48.63
2022-10-07T22:24:09.046Z,48.84
2022-10-07T22:26:41.934Z,48.94
2022-10-07T22:29:09.941Z,48.41
2022-10-07T22:31:37.344Z,48.53
2022-10-07T22:34:06.323Z,48.73
2022-10-07T22:36:33.436Z,49.13
2022-10-07T22:39:00.175Z,48.83
2022-10-07T22:41:27.527Z,48.80
2022-10-07T22:43:59.447Z,49.04
2022-10-07T22:46:28.236Z,49.01
2022-10-07T22:48:58.482Z,49.04
2022-10-07T22:51:29.186Z,48.90
2022-10-07T22:53:59.344Z,49.26
2022-10-07T22:56:28.058Z,49.21
2022-10-07T22:59:00.244Z,49.40
2022-10-07T23:01:29.486Z,49.51
2022-10-07T23:03:58.762Z,49.22
2022-10-07T23:06:25.398Z,49.41
2022-10-07T23:08:52.028Z,49.67
2022-10-07T23:11:24.093Z,49.91
2022-10-07T23:13:55.567Z,49.77
2022-10-07T23:16:24.769Z,49.55
2022-10-07T23:18:53.591Z,49.76
2022-10-07T23:21:23.695Z,49.86
2022-10-07T23:23:56.598Z,49.79
2022-10-07T23:26:26.183Z,49.77
2022-10-07T23:28:54.436Z,49.85
2022-10-07T23:31:22.661Z,50.04
2022-10-07T23:33:52.101Z,50.33
2022-10-07T23:36:20.692Z,49.89
2022-10-07T23:38:49.137Z,50.30
2022-10-07T23:41:18.476Z,50.33
2022-10-07T23:43:51.547Z,50.38
2022-10-07T23:46:19.722Z,50.28
2022-10-07T23:48:47.174Z,50.21
2022-10-07T23:51:20.526Z,50.53
2022-10-07T23:53:51.506Z,50.76
2022-10-07T23:56:19.051Z,50.43
2022-10-07T23:58:45.766Z,50.57
